createdAt,value
2022-09-24T08:31:45.349Z,86.30
2022-09-24T08:34:12.827Z,87.10
2022-09-24T08:36:43.008Z,87.90
2022-09-24T08:39:10.582Z,87.80
2022-09-24T08:41:49.380Z,87.50
2022-09-24T08:44:51.736Z,87.50
2022-09-24T08:47:50.891Z,87.30
2022-09-24T08:50:17.663Z,86.60
2022-09-24T08:52:45.600Z,85.50
2022-09-24T08:55:53.333Z,83.70
2022-09-24T08:58:44.116Z,82.70
2022-09-24T09:01:11.371Z,81.90
2022-09-24T09:03:53.043Z,82.70
2022-09-24T09:06:38.493Z,82.90
2022-09-24T09:09:31.405Z,82.90
2022-09-24T09:12:00.951Z,82.70
2022-09-24T09:14:45.092Z,82.40
2022-09-24T09:17:36.271Z,82.10
2022-09-24T09:20:06.268Z,82.00
2022-09-24T09:22:38.228Z,82.20
2022-09-24T09:25:20.648Z,80.80
2022-09-24T09:27:58.776Z,80.20
2022-09-24T09:30:25.569Z,78.60
2022-09-24T09:33:10.379Z,78.70
2022-09-24T09:35:58.776Z,79.60
2022-09-24T09:38:37.842Z,79.10
2022-09-24T09:41:26.492Z,76.80
2022-09-24T09:44:00.827Z,76.30
2022-09-24T09:46:30.440Z,76.80
2022-09-24T09:49:03.064Z,76.60
2022-09-24T09:51:31.940Z,76.40
2022-09-24T09:53:59.945Z,75.30
2022-09-24T09:56:47.527Z,72.50
2022-09-24T09:59:17.956Z,74.00
2022-09-24T10:01:46.735Z,74.00
2022-09-24T10:04:35.533Z,74.40
2022-09-24T10:07:07.106Z,75.20
2022-09-24T10:09:34.122Z,74.80
2022-09-24T10:12:27.172Z,73.60
2022-09-24T10:15:00.529Z,74.00
2022-09-24T10:17:34.154Z,74.10
2022-09-24T10:20:01.934Z,75.10
2022-09-24T10:22:28.698Z,75.30
2022-09-24T10:24:56.380Z,73.60
2022-09-24T10:27:30.263Z,73.30
2022-09-24T10:30:15.739Z,73.80
2022-09-24T10:32:42.573Z,73.10
2022-09-24T10:35:35.656Z,73.10
2022-09-24T10:38:04.922Z,72.50
2022-09-24T10:40:38.721Z,71.80
2022-09-24T10:43:06.129Z,72.00
2022-09-24T10:45:51.082Z,71.20
2022-09-24T10:48:55.087Z,71.70
2022-09-24T10:51:30.537Z,71.30
2022-09-24T10:54:12.345Z,72.00
2022-09-24T10:56:46.644Z,72.80
2022-09-24T10:59:34.911Z,72.80
2022-09-24T11:02:13.812Z,72.40
2022-09-24T11:04:56.711Z,72.40
2022-09-24T11:07:45.870Z,72.50
2022-09-24T11:10:17.573Z,73.00
2022-09-24T11:13:07.335Z,73.90
2022-09-24T11:15:58.879Z,74.30
2022-09-24T11:18:32.049Z,74.80
2022-09-24T11:21:15.458Z,74.90
2022-09-24T11:24:30.175Z,75.70
2022-09-24T11:27:23.944Z,76.00
2022-09-24T11:30:10.260Z,76.80
2022-09-24T11:33:04.756Z,76.90
2022-09-24T11:35:58.278Z,76.30
2022-09-24T11:38:39.934Z,76.60
2022-09-24T11:41:29.180Z,76.90
2022-09-24T11:44:13.603Z,77.30
2022-09-24T11:46:47.288Z,76.50
2022-09-24T11:49:40.932Z,76.40
2022-09-24T11:52:10.755Z,76.20
2022-09-24T11:54:46.250Z,76.40
2022-09-24T11:57:25.338Z,76.30
2022-09-24T12:00:08.039Z,76.50
2022-09-24T12:02:40.390Z,76.80
2022-09-24T12:05:08.223Z,76.30
2022-09-24T12:07:39.768Z,76.60
2022-09-24T12:10:29.792Z,77.10
2022-09-24T12:13:13.492Z,77.50
2022-09-24T12:15:47.433Z,78.10
2022-09-24T12:18:29.252Z,77.90
2022-09-24T12:21:08.990Z,77.50
2022-09-24T12:23:39.767Z,77.50
2022-09-24T12:26:06.699Z,77.40
2022-09-24T12:29:00.495Z,76.80
2022-09-24T12:31:51.470Z,76.70
2022-09-24T12:34:36.912Z,76.80
2022-09-24T12:37:09.626Z,76.70
2022-09-24T12:39:52.835Z,77.20
2022-09-24T12:42:20.045Z,77.30
2022-09-24T12:44:53.010Z,78.30
2022-09-24T12:47:44.250Z,77.80
2022-09-24T12:50:20.099Z,77.50
2022-09-24T12:52:46.835Z,77.50
2022-09-24T12:55:21.494Z,77.80
2022-09-24T12:57:57.062Z,78.00
2022-09-24T13:00:43.394Z,77.40
2022-09-24T13:03:47.406Z,77.40
2022-09-24T13:06:32.563Z,77.40
2022-09-24T13:08:59.850Z,77.70
2022-09-24T13:11:26.598Z,78.10
2022-09-24T13:14:11.628Z,78.00
2022-09-24T13:16:39.963Z,78.60
2022-09-24T13:19:20.724Z,78.80
2022-09-24T13:21:54.008Z,78.70
2022-09-24T13:24:45.658Z,79.20
2022-09-24T13:27:31.528Z,79.00
2022-09-24T13:30:20.770Z,79.50
2022-09-24T13:33:03.497Z,80.00
2022-09-24T13:36:08.924Z,80.10
2022-09-24T13:39:20.469Z,80.40
2022-09-24T13:42:24.838Z,80.70
2022-09-24T13:45:11.393Z,80.80
2022-09-24T13:47:42.712Z,81.00
2022-09-24T13:50:14.318Z,80.90
2022-09-24T13:53:06.625Z,81.10
2022-09-24T13:55:34.026Z,81.20
2022-09-24T13:58:00.954Z,81.10
2022-09-24T14:00:28.806Z,81.00
2022-09-24T14:02:56.816Z,80.80
2022-09-24T14:05:24.133Z,80.60
2022-09-24T14:08:03.171Z,80.70
2022-09-24T14:10:30.025Z,81.20
2022-09-24T14:13:26.031Z,80.80
2022-09-24T14:16:00.575Z,81.00
2022-09-24T14:18:28.170Z,81.20
2022-09-24T14:20:59.517Z,81.10
2022-09-24T14:23:28.198Z,81.00
2022-09-24T14:25:54.967Z,81.10
2022-09-24T14:28:21.742Z,80.50
2022-09-24T14:30:53.106Z,80.50
2022-09-24T14:33:22.786Z,80.90
2022-09-24T14:35:50.220Z,80.80
2022-09-24T14:38:19.850Z,79.90
2022-09-24T14:40:52.015Z,80.10
2022-09-24T14:43:23.835Z,80.20
2022-09-24T14:45:50.849Z,80.00
2022-09-24T14:48:30.582Z,80.20
2022-09-24T14:50:57.435Z,80.00
2022-09-24T14:53:27.267Z,79.90
2022-09-24T14:55:54.111Z,80.00
2022-09-24T14:58:36.292Z,79.80
2022-09-24T15:01:22.140Z,79.90
2022-09-24T15:04:00.119Z,80.00
2022-09-24T15:06:32.268Z,80.30
2022-09-24T15:09:00.607Z,80.50
2022-09-24T15:11:29.206Z,80.40
2022-09-24T15:14:03.186Z,80.70
2022-09-24T15:16:30.447Z,80.80
2022-09-24T15:19:21.275Z,80.90
2022-09-24T15:21:49.298Z,81.10
2022-09-24T15:24:17.556Z,81.70
2022-09-24T15:27:08.973Z,82.40
2022-09-24T15:29:35.877Z,82.20
2022-09-24T15:32:03.190Z,82.30
2022-09-24T15:34:30.238Z,82.60
2022-09-24T15:36:59.531Z,82.80
2022-09-24T15:39:27.356Z,82.90
2022-09-24T15:41:54.252Z,83.10
2022-09-24T15:44:33.620Z,83.30
2022-09-24T15:47:01.043Z,83.60
2022-09-24T15:49:27.927Z,83.70
2022-09-24T15:52:01.873Z,84.10
2022-09-24T15:54:29.027Z,84.20
2022-09-24T15:56:56.051Z,84.20
2022-09-24T15:59:23.718Z,84.30
2022-09-24T16:01:52.066Z,84.50
2022-09-24T16:04:19.288Z,84.30
2022-09-24T16:06:46.266Z,84.60
2022-09-24T16:09:13.066Z,84.80
2022-09-24T16:11:40.261Z,84.80
2022-09-24T16:14:07.563Z,84.90
2022-09-24T16:16:34.550Z,85.60
2022-09-24T16:19:01.442Z,85.70
2022-09-24T16:21:28.286Z,86.00
2022-09-24T16:24:01.438Z,86.20
2022-09-24T16:26:28.126Z,86.30
2022-09-24T16:28:55.248Z,86.80
2022-09-24T16:31:23.754Z,87.30
2022-09-24T16:33:50.904Z,87.40
2022-09-24T16:36:17.918Z,87.30
2022-09-24T16:38:45.003Z,87.60
2022-09-24T16:41:11.994Z,88.20
2022-09-24T16:43:39.925Z,88.10
2022-09-24T16:46:08.453Z,88.40
2022-09-24T16:48:38.650Z,88.50
2022-09-24T16:51:06.750Z,88.80
2022-09-24T16:53:36.296Z,89.00
2022-09-24T16:56:06.734Z,89.10
2022-09-24T16:58:36.436Z,89.40
2022-09-24T17:01:06.984Z,90.00
2022-09-24T17:03:38.424Z,90.10
2022-09-24T17:06:17.350Z,90.50
2022-09-24T17:09:08.914Z,90.60
2022-09-24T17:11:42.157Z,90.80
2022-09-24T17:14:11.626Z,90.90
2022-09-24T17:16:43.826Z,91.00
2022-09-24T17:19:26.992Z,91.10
2022-09-24T17:22:12.752Z,91.30
2022-09-24T17:24:49.566Z,91.60
2022-09-24T17:27:19.754Z,91.70
2022-09-24T17:29:49.793Z,92.00
2022-09-24T17:32:17.104Z,92.30
2022-09-24T17:34:46.072Z,92.50
2022-09-24T17:37:25.650Z,92.70
2022-09-24T17:39:57.087Z,92.90
2022-09-24T17:42:23.916Z,93.10
2022-09-24T17:44:51.071Z,93.30
2022-09-24T17:47:20.828Z,93.50
2022-09-24T17:49:57.045Z,93.80
2022-09-24T17:52:50.749Z,93.90
2022-09-24T17:55:27.675Z,94.20
2022-09-24T18:00:52.533Z,94.70
2022-09-24T18:03:28.465Z,94.90
2022-09-24T18:06:05.888Z,95.20
2022-09-24T18:08:39.779Z,95.60
2022-09-24T18:11:26.619Z,95.90
2022-09-24T18:14:06.628Z,96.20
2022-09-24T18:16:42.308Z,96.50
2022-09-24T18:19:24.573Z,97.00
2022-09-24T18:22:03.607Z,97.10
2022-09-24T18:24:45.634Z,97.40
2022-09-24T18:27:25.204Z,97.60
2022-09-24T18:29:58.668Z,97.90
2022-09-24T18:32:42.589Z,98.20
2022-09-24T18:35:25.776Z,98.40
2022-09-24T18:38:02.885Z,98.70
2022-09-24T18:40:29.803Z,98.90
2022-09-24T18:42:59.626Z,99.10
2022-09-24T18:45:37.146Z,99.50
2022-09-24T18:48:14.894Z,99.70
2022-09-24T18:50:58.680Z,99.90
2022-09-24T18:53:31.395Z,99.90
2022-09-24T18:56:07.427Z,99.90
2022-09-24T18:58:47.799Z,99.90
2022-09-24T19:01:27.000Z,99.90
2022-09-24T19:04:05.694Z,99.90
2022-09-24T19:06:37.203Z,99.90
2022-09-24T19:09:07.858Z,99.90
2022-09-24T19:11:46.074Z,99.90
2022-09-24T19:14:18.121Z,99.90
2022-09-24T19:16:45.567Z,99.90
2022-09-24T19:19:26.473Z,99.90
2022-09-24T19:22:06.725Z,99.90
2022-09-24T19:24:39.218Z,99.90
2022-09-24T19:27:08.771Z,99.90
2022-09-24T19:29:45.982Z,99.90
2022-09-24T19:32:28.331Z,99.90
2022-09-24T19:35:04.214Z,99.90
2022-09-24T19:37:33.768Z,99.90
2022-09-24T19:40:03.303Z,99.90
2022-09-24T19:42:47.869Z,99.90
2022-09-24T19:45:27.705Z,99.90
2022-09-24T19:48:09.801Z,99.90
2022-09-24T19:50:50.283Z,99.90
2022-09-24T19:53:26.941Z,99.90
2022-09-24T19:56:09.672Z,99.90
2022-09-24T19:58:52.818Z,99.90
2022-09-24T20:01:37.255Z,99.90
2022-09-24T20:04:07.355Z,99.90
2022-09-24T20:06:46.690Z,99.90
2022-09-24T20:09:25.661Z,99.90
2022-09-24T20:12:04.464Z,99.90
2022-09-24T20:14:42.318Z,99.90
2022-09-24T20:17:21.258Z,99.90
2022-09-24T20:20:01.672Z,99.90
2022-09-24T20:22:42.837Z,99.90
2022-09-24T20:25:40.405Z,99.90
2022-09-24T20:28:19.818Z,99.90
2022-09-24T20:33:55.346Z,99.90
2022-09-24T20:36:35.663Z,99.90
2022-09-24T20:39:15.866Z,99.90
2022-09-24T20:42:00.694Z,99.90
2022-09-24T20:44:39.837Z,99.90
2022-09-24T20:47:19.846Z,99.90
2022-09-24T20:49:59.408Z,99.90
2022-09-24T20:52:39.601Z,99.90
2022-09-24T20:55:25.470Z,99.90
2022-09-24T20:58:07.863Z,99.90
2022-09-24T21:00:54.614Z,99.90
2022-09-24T21:03:43.890Z,99.90
2022-09-24T21:06:23.641Z,99.90
2022-09-24T21:09:00.718Z,99.90
2022-09-24T21:11:37.760Z,99.90
2022-09-24T21:14:17.675Z,99.90
2022-09-24T21:16:56.803Z,99.90
2022-09-24T21:19:36.844Z,99.90
2022-09-24T21:22:14.293Z,99.90
2022-09-24T21:24:54.969Z,99.90
2022-09-24T21:27:34.891Z,99.90
2022-09-24T21:30:14.827Z,99.90
2022-09-24T21:33:01.098Z,99.90
2022-09-24T21:35:37.059Z,99.90
2022-09-24T21:38:20.722Z,99.90
2022-09-24T21:41:08.838Z,99.90
2022-09-24T21:43:47.704Z,99.90
2022-09-24T21:46:26.842Z,99.90
2022-09-24T21:49:04.665Z,99.90
2022-09-24T21:51:39.889Z,99.90
2022-09-24T21:54:19.362Z,99.90
2022-09-24T21:56:59.892Z,99.90
2022-09-24T21:59:51.840Z,99.90
2022-09-24T22:02:35.066Z,99.90
2022-09-24T22:05:15.629Z,99.90
2022-09-24T22:08:01.801Z,99.90
2022-09-24T22:10:41.706Z,99.90
2022-09-24T22:13:20.873Z,99.90
2022-09-24T22:15:59.561Z,99.90
2022-09-24T22:18:38.703Z,99.90
2022-09-24T22:21:19.912Z,99.90
2022-09-24T22:23:59.823Z,99.90
2022-09-24T22:26:38.950Z,99.90
2022-09-24T22:29:21.766Z,99.90
2022-09-24T22:32:01.485Z,99.90
2022-09-24T22:34:56.145Z,99.90
2022-09-24T22:37:29.880Z,99.90
2022-09-24T22:40:09.043Z,99.90
2022-09-24T22:42:53.691Z,99.90
2022-09-24T22:45:24.632Z,99.90
2022-09-24T22:47:57.471Z,99.90
2022-09-24T22:50:26.415Z,99.90
2022-09-24T22:52:56.618Z,99.90
2022-09-24T22:55:25.575Z,99.90
2022-09-24T22:57:52.455Z,99.90
2022-09-24T23:00:19.467Z,99.90
2022-09-24T23:02:55.867Z,99.90
2022-09-24T23:05:35.728Z,99.90
2022-09-24T23:08:14.742Z,99.90
2022-09-24T23:10:53.885Z,99.90
2022-09-24T23:13:31.402Z,99.90
2022-09-24T23:16:16.620Z,99.90
2022-09-24T23:18:51.304Z,99.90
2022-09-24T23:21:27.308Z,99.90
2022-09-24T23:24:06.348Z,99.90
2022-09-24T23:26:33.225Z,99.90
2022-09-24T23:29:00.697Z,99.90
2022-09-24T23:31:42.744Z,99.90
2022-09-24T23:34:15.400Z,99.90
2022-09-24T23:36:42.258Z,99.90
2022-09-24T23:39:20.036Z,99.90
2022-09-24T23:42:01.676Z,99.90
2022-09-24T23:44:43.722Z,99.90
2022-09-24T23:47:13.780Z,99.90
2022-09-24T23:49:40.561Z,99.90
2022-09-24T23:52:13.870Z,99.90
2022-09-24T23:54:46.659Z,99.90
2022-09-24T23:57:13.523Z,99.90
2022-09-24T23:59:40.684Z,99.90
